West Newton, Indiana
Current Conditions -  °F | °C
As of 11:54 PM on Thursday 30 Oct 2014 (Local Time) from KIND Reporting Station
Drizzle Drizzle  
Wind Chill: 44°   Ceiling: 4500
Heat Index: 47°   Visibility: 10mi
Dew Point: 39°   Wind: 6mph
Humidity: 74%   Direction: 290°WNW
Pressure: 30.05"   Gusts: NA
Location:  39.65°N, 86.28°W
Report Text: KIND 310354Z 29005KT 10SM -DZ OVC045 08/04 A3005 RMK AO2 RAE24DZB51 SLP176 P0000 T00830039
Loading
Personal Weather Stations






























Interactive Weather Map
Tropical Storm Tracking
New forecast layout! Learn more

10-Day Weather Forecast

Advertisements
Track Severe Weather on mobile